^^
Station Historical Data
Daily Summary for August 25, 2017 Units:  Metric    English   Both
« Previous Day
Next Day »
Daily Weekly Monthly Yearly Custom
  High: Low: Average:
Temperature: 22.7 °C 6.2 °C 12.5 °C
Dew Point: 3.8 °C -8.9 °C 0.2 °C
Humidity: 77% 18% 49%
Wind Speed: 17.7km/h 0km/h 4.8km/h
Wind Gust: 19.3km/h - -
Wind- - SSE
Pressure: 1020.9 hPa 1016.8 hPa -
Precipitation: 0 mm    
Historical Graphs
 
 
Tabular Data for August 25, 2017
Time Temperature Dew Point Pressure Wind Wind Speed Wind Gust Humidity Rainfall Rate (Hourly) solar Conditions
00:04 10.1 °C 3.6 °C 1018.8 hPa South 11.1 km/h 16.1 km/h 64% 0 mm 0.0 W/m2
00:14 9.9 °C 3.4 °C 1018.5 hPa South 9.7 km/h 12.9 km/h 64% 0 mm 0.0 W/m2
00:19 9.8 °C 3.3 °C 1018.5 hPa South 11.1 km/h 12.9 km/h 64% 0 mm 0.0 W/m2
00:24 9.7 °C 3.4 °C 1018.5 hPa South 13 km/h 13 km/h 65% 0 mm 0.0 W/m2
00:29 9.7 °C 3.4 °C 1018.5 hPa South 13 km/h 13 km/h 65% 0 mm 0.0 W/m2
00:34 9.6 °C 3.3 °C 1018.5 hPa South 9.7 km/h 14.5 km/h 65% 0 mm 0.0 W/m2
00:44 9.5 °C 3.2 °C 1018.5 hPa South 9.7 km/h 11.3 km/h 65% 0 mm 0.0 W/m2
00:49 9.4 °C 3.4 °C 1018.5 hPa South 13 km/h 13 km/h 66% 0 mm 0.0 W/m2
00:59 9.3 °C 3.3 °C 1018.5 hPa South 7.9 km/h 9.7 km/h 66% 0 mm 0.0 W/m2
01:04 9.2 °C 3.2 °C 1018.5 hPa South 6.4 km/h 8 km/h 66% 0 mm 0.0 W/m2
01:09 9.1 °C 3.1 °C 1018.5 hPa South 6.4 km/h 9.7 km/h 66% 0 mm 0.0 W/m2
01:15 9 °C 3 °C 1018.2 hPa South 7.9 km/h 8 km/h 66% 0 mm 0.0 W/m2
01:25 8.8 °C 2.8 °C 1018.2 hPa South 6.4 km/h 8 km/h 66% 0 mm 0.0 W/m2
01:30 8.7 °C 2.7 °C 1018.2 hPa South 7.9 km/h 9.7 km/h 66% 0 mm 0.0 W/m2
01:40 8.5 °C 2.7 °C 1018.2 hPa South 9.7 km/h 11.3 km/h 67% 0 mm 0.0 W/m2
01:45 8.6 °C 2.8 °C 1018.2 hPa South 7.9 km/h 11.3 km/h 67% 0 mm 0.0 W/m2
01:50 8.7 °C 2.9 °C 1018.2 hPa South 7.9 km/h 11.3 km/h 67% 0 mm 0.0 W/m2
01:55 8.7 °C 2.7 °C 1018.2 hPa South 7.9 km/h 11.3 km/h 66% 0 mm 0.0 W/m2
02:00 8.7 °C 2.7 °C 1018.2 hPa South 9.7 km/h 11.3 km/h 66% 0 mm 0.0 W/m2
02:10 8.5 °C 2.7 °C 1018.2 hPa South 9.7 km/h 11.3 km/h 67% 0 mm 0.0 W/m2
02:15 8.4 °C 2.6 °C 1018.2 hPa South 7.9 km/h 9.7 km/h 67% 0 mm 0.0 W/m2
02:20 8.2 °C 2.4 °C 1018.2 hPa South 6.4 km/h 8 km/h 67% 0 mm 0.0 W/m2
02:25 8 °C 2.2 °C 1018.2 hPa South 4.7 km/h 8 km/h 67% 0 mm 0.0 W/m2
02:30 7.7 °C 2.2 °C 1018.2 hPa South 6.4 km/h 8 km/h 68% 0 mm 0.0 W/m2
02:35 7.6 °C 2.3 °C 1018.2 hPa South 7.9 km/h 8 km/h 69% 0 mm 0.0 W/m2
02:40 7.5 °C 2.2 °C 1018.2 hPa South 7.9 km/h 9.7 km/h 69% 0 mm 0.0 W/m2
02:45 7.6 °C 2.5 °C 1018.2 hPa South 7.9 km/h 11.3 km/h 70% 0 mm 0.0 W/m2
02:55 7.8 °C 2.5 °C 1018.2 hPa South 6.4 km/h 8 km/h 69% 0 mm 0.0 W/m2
03:00 7.7 °C 2.6 °C 1018.2 hPa South 7.9 km/h 9.7 km/h 70% 0 mm 0.0 W/m2
03:05 7.7 °C 2.6 °C 1018.2 hPa South 7.9 km/h 9.7 km/h 70% 0 mm 0.0 W/m2
03:10 7.7 °C 2.6 °C 1018.2 hPa South 6.4 km/h 9.7 km/h 70% 0 mm 0.0 W/m2
03:15 7.7 °C 2.4 °C 1018.2 hPa South 6.4 km/h 8 km/h 69% 0 mm 0.0 W/m2
03:21 7.5 °C 2.4 °C 1018.2 hPa South 6.4 km/h 8 km/h 70% 0 mm 0.0 W/m2
03:26 7.3 °C 2.2 °C 1018.2 hPa South 6.4 km/h 8 km/h 70% 0 mm 0.0 W/m2
03:36 7.3 °C 2.6 °C 1018.2 hPa South 9.7 km/h 9.7 km/h 72% 0 mm 0.0 W/m2
03:46 7.3 °C 2.6 °C 1018.5 hPa South 4.7 km/h 8 km/h 72% 0 mm 0.0 W/m2
03:56 7.3 °C 2.6 °C 1018.2 hPa South 3.2 km/h 8 km/h 72% 0 mm 0.0 W/m2
04:01 7.3 °C 2.6 °C 1018.2 hPa South 4.7 km/h 8 km/h 72% 0 mm 0.0 W/m2
04:06 7.3 °C 2.6 °C 1018.5 hPa South 3.2 km/h 6.4 km/h 72% 0 mm 0.0 W/m2
04:11 7.2 °C 2.7 °C 1018.5 hPa Calm     73% 0 mm 0.0 W/m2
04:16 7 °C 2.5 °C 1018.5 hPa Calm     73% 0 mm 0.0 W/m2
04:22 6.9 °C 2.4 °C 1018.5 hPa Calm     73% 0 mm 0.0 W/m2
04:27 6.8 °C 2.3 °C 1018.5 hPa Calm     73% 0 mm 0.0 W/m2
04:32 6.7 °C 2.6 °C 1018.5 hPa South 7.9 km/h 9.7 km/h 75% 0 mm 0.0 W/m2
04:37 6.8 °C 2.7 °C 1018.5 hPa South 7.9 km/h 9.7 km/h 75% 0 mm 0.0 W/m2
04:42 6.8 °C 2.3 °C 1018.5 hPa South 7.9 km/h 8 km/h 73% 0 mm 0.0 W/m2
04:47 6.7 °C 2.4 °C 1018.5 hPa South 6.4 km/h 8 km/h 74% 0 mm 0.0 W/m2
04:53 6.6 °C 2.3 °C 1018.8 hPa South 7.9 km/h 9.7 km/h 74% 0 mm 0.0 W/m2
04:58 6.6 °C 2.5 °C 1018.8 hPa South 6.4 km/h 8 km/h 75% 0 mm 0.0 W/m2
05:03 6.5 °C 2.2 °C 1018.5 hPa South 6.4 km/h 8 km/h 74% 0 mm 0.0 W/m2
05:08 6.3 °C 2.2 °C 1018.5 hPa South 13 km/h 13 km/h 75% 0 mm 0.0 W/m2
05:18 6.9 °C 2.8 °C 1018.8 hPa South 6.4 km/h 8 km/h 75% 0 mm 0.0 W/m2
05:28 6.7 °C 2.6 °C 1018.8 hPa South 13 km/h 14.5 km/h 75% 0 mm 0.0 W/m2
05:44 6.3 °C 2.2 °C 1018.8 hPa Calm     75% 0 mm 0.0 W/m2
05:50 6.2 °C 2.1 °C 1018.8 hPa South 4.7 km/h 4.8 km/h 75% 0 mm 0.0 W/m2
05:55 6.2 °C 2.5 °C 1019.2 hPa South 11.1 km/h 11.3 km/h 77% 0 mm 0.0 W/m2
06:00 6.4 °C 2.3 °C 1019.2 hPa South 11.1 km/h 11.3 km/h 75% 0 mm 0.0 W/m2
06:10 6.8 °C 2.7 °C 1019.2 hPa South 11.1 km/h 12.9 km/h 75% 0 mm 0.0 W/m2
06:20 6.8 °C 2.5 °C 1019.5 hPa South 9.7 km/h 9.7 km/h 74% 0 mm 9.0 W/m2
06:25 6.6 °C 2.3 °C 1019.5 hPa South 4.7 km/h 6.4 km/h 74% 0 mm 11.0 W/m2
06:30 6.4 °C 2.3 °C 1019.5 hPa Calm     75% 0 mm 12.0 W/m2
06:35 6.4 °C 2.5 °C 1019.5 hPa Calm     76% 0 mm 14.0 W/m2
06:41 6.4 °C 2.5 °C 1019.5 hPa Calm     76% 0 mm 18.0 W/m2
06:50 6.6 °C 2.5 °C 1019.9 hPa Calm     75% 0 mm 77.0 W/m2
06:56 6.8 °C 2.7 °C 1019.9 hPa Calm     75% 0 mm 97.0 W/m2
07:02 7.2 °C 2.9 °C 1019.9 hPa Calm     74% 0 mm 116.0 W/m2
07:05 7.6 °C 3.1 °C 1019.9 hPa Calm     73% 0 mm 135.0 W/m2
07:19 8.3 °C 3.4 °C 1020.2 hPa Calm     71% 0 mm 174.0 W/m2
07:29 8.9 °C 3.3 °C 1020.2 hPa Calm     68% 0 mm 214.0 W/m2
07:36 9.4 °C 3.4 °C 1020.2 hPa Calm     66% 0 mm 250.0 W/m2
07:55 9.9 °C 3.4 °C 1020.5 hPa Calm     64% 0 mm 304.0 W/m2
08:01 10.4 °C 3.4 °C 1020.5 hPa Calm     62% 0 mm 338.0 W/m2
08:22 11.1 °C 3.6 °C 1020.5 hPa Calm     60% 0 mm 385.0 W/m2
08:32 12.1 °C 3.8 °C 1020.9 hPa Calm     57% 0 mm 431.0 W/m2
08:43 13.5 °C 2.7 °C 1020.9 hPa South 4.7 km/h 9.7 km/h 48% 0 mm 457.0 W/m2
08:49 14.1 °C 2.6 °C 1020.9 hPa South 3.2 km/h 9.7 km/h 46% 0 mm 471.0 W/m2
08:53 14.4 °C 2.6 °C 1020.9 hPa South 4.7 km/h 12.9 km/h 45% 0 mm 483.0 W/m2
09:03 14.4 °C 2 °C 1020.9 hPa SSE 13 km/h 14.5 km/h 43% 0 mm 510.0 W/m2
09:18 14.9 °C 2.1 °C 1020.9 hPa SSE 9.7 km/h 9.7 km/h 42% 0 mm 548.0 W/m2
09:28 15 °C 2.2 °C 1020.9 hPa SE 4.7 km/h 11.3 km/h 42% 0 mm 573.0 W/m2
09:32 15 °C 2.2 °C 1020.9 hPa SE 4.7 km/h 11.3 km/h 42% 0 mm 573.0 W/m2
09:38 15.2 °C 2.4 °C 1020.9 hPa SE 11.1 km/h 12.9 km/h 42% 0 mm 594.0 W/m2
09:41 15.2 °C 2.4 °C 1020.9 hPa SE 11.1 km/h 12.9 km/h 42% 0 mm 594.0 W/m2
09:48 15.3 °C 2.5 °C 1020.9 hPa SE 13 km/h 16.1 km/h 42% 0 mm 617.0 W/m2
12:41 20.1 °C 1 °C 1018.8 hPa Calm     28% 0 mm 729.0 W/m2
12:47 19.8 °C 0.8 °C 1018.5 hPa East 4.7 km/h 11.3 km/h 28% 0 mm 719.0 W/m2
13:00 19.6 °C 1.1 °C 1018.5 hPa Calm   4.8 km/h 29% 0 mm 707.0 W/m2
13:14 20.1 °C 1 °C 1018.2 hPa Calm     28% 0 mm 687.0 W/m2
13:20 20.6 °C 0.4 °C 1018.2 hPa Calm   12.9 km/h 26% 0 mm 670.0 W/m2
13:36 20.8 °C 0.6 °C 1017.8 hPa Calm   4.8 km/h 26% 0 mm 642.0 W/m2
13:42 20.8 °C 0.6 °C 1017.8 hPa Calm   4.8 km/h 26% 0 mm 642.0 W/m2
13:56 20.9 °C 0.7 °C 1017.8 hPa Calm   4.8 km/h 26% 0 mm 615.0 W/m2
14:10 21.3 °C 1 °C 1017.5 hPa East 4.7 km/h 12.9 km/h 26% 0 mm 582.0 W/m2
14:20 21.5 °C 1.2 °C 1017.5 hPa East 6.4 km/h 6.4 km/h 26% 0 mm 557.0 W/m2
14:32 21.6 °C 0.7 °C 1017.5 hPa Calm     25% 0 mm 531.0 W/m2
14:42 21.4 °C 0.6 °C 1017.5 hPa Calm     25% 0 mm 490.0 W/m2
15:02 21.9 °C -0.8 °C 1017.2 hPa Calm     22% 0 mm 448.0 W/m2
15:08 22.2 °C -0.5 °C 1017.2 hPa Calm   3.2 km/h 22% 0 mm 415.0 W/m2
15:21 22.5 °C -0.3 °C 1017.2 hPa Calm   4.8 km/h 22% 0 mm 385.0 W/m2
15:32 22.3 °C -0.5 °C 1017.2 hPa Calm     22% 0 mm 355.0 W/m2
15:45 22.4 °C -1 °C 1016.8 hPa Calm     21% 0 mm 334.0 W/m2
16:01 22.7 °C -1.4 °C 1017.2 hPa Calm     20% 0 mm 274.0 W/m2
16:16 22.3 °C -1.1 °C 1017.2 hPa Calm   4.8 km/h 21% 0 mm 225.0 W/m2
16:30 22.2 °C -1.8 °C 1016.8 hPa Calm     20% 0 mm 163.0 W/m2
16:44 21.9 °C -2.1 °C 1017.2 hPa Calm     20% 0 mm 105.0 W/m2
16:54 21.8 °C -1.5 °C 1017.2 hPa Calm     21% 0 mm 72.0 W/m2
17:03 21.7 °C -1.6 °C 1017.2 hPa Calm     21% 0 mm 42.0 W/m2
17:11 21.5 °C -1.1 °C 1017.2 hPa Calm     22% 0 mm 18.0 W/m2
17:19 21.3 °C -1.3 °C 1017.2 hPa Calm     22% 0 mm 12.0 W/m2
17:26 21 °C -0.9 °C 1017.2 hPa Calm     23% 0 mm 7.0 W/m2
17:41 20.3 °C -1.5 °C 1017.2 hPa Calm     23% 0 mm 0.0 W/m2
17:52 19.6 °C -1.5 °C 1017.2 hPa Calm     24% 0 mm 0.0 W/m2
18:26 17.5 °C -1.7 °C 1017.5 hPa Calm     27% 0 mm 0.0 W/m2
18:38 16.9 °C -2.7 °C 1017.5 hPa Calm     26% 0 mm 0.0 W/m2
18:53 16 °C -3 °C 1017.8 hPa Calm     27% 0 mm 0.0 W/m2
19:04 15.4 °C -4 °C 1017.8 hPa Calm     26% 0 mm 0.0 W/m2
19:14 14.8 °C -3.5 °C 1017.8 hPa Calm     28% 0 mm 0.0 W/m2
19:29 14.8 °C -3.1 °C 1017.8 hPa Calm     29% 0 mm 0.0 W/m2
19:44 15.1 °C -2.8 °C 1017.8 hPa Calm     29% 0 mm 0.0 W/m2
20:00 15.2 °C -2.3 °C 1017.8 hPa Calm     30% 0 mm 0.0 W/m2
20:15 15.1 °C -2.4 °C 1017.8 hPa East 3.2 km/h 9.7 km/h 30% 0 mm 0.0 W/m2
20:23 15.1 °C -2.4 °C 1017.8 hPa East 3.2 km/h 9.7 km/h 30% 0 mm 0.0 W/m2
20:45 15.4 °C -7.5 °C 1018.2 hPa East 9.7 km/h 9.7 km/h 20% 0 mm 0.0 W/m2
21:05 16.2 °C -8.2 °C 1018.2 hPa East 9.7 km/h 12.9 km/h 18% 0 mm 0.0 W/m2
21:19 15.7 °C -8.6 °C 1018.2 hPa East 9.7 km/h 14.5 km/h 18% 0 mm 0.0 W/m2
21:26 15.4 °C -8.8 °C 1018.2 hPa East 9.7 km/h 17.7 km/h 18% 0 mm 0.0 W/m2
21:36 15.3 °C -8.9 °C 1018.2 hPa East 14.3 km/h 19.3 km/h 18% 0 mm 0.0 W/m2
21:50 15.3 °C -8.2 °C 1018.2 hPa East 14.3 km/h 17.7 km/h 19% 0 mm 0.0 W/m2
21:56 15.1 °C -8.4 °C 1018.2 hPa East 14.3 km/h 17.7 km/h 19% 0 mm 0.0 W/m2
22:03 15 °C -8.5 °C 1018.2 hPa East 17.7 km/h 19.3 km/h 19% 0 mm 0.0 W/m2
22:07 15 °C -8.5 °C 1018.2 hPa East 16.3 km/h 17.7 km/h 19% 0 mm 0.0 W/m2
22:13 14.9 °C -8.5 °C 1017.8 hPa East 16.3 km/h 19.3 km/h 19% 0 mm 0.0 W/m2
22:48 14.5 °C -7.6 °C 1017.8 hPa Calm     21% 0 mm 0.0 W/m2
22:57 14.4 °C -7.7 °C 1017.8 hPa Calm     21% 0 mm 0.0 W/m2
23:13 14.3 °C -7.1 °C 1017.8 hPa Calm     22% 0 mm 0.0 W/m2
23:18 14.3 °C -7.1 °C 1017.8 hPa Calm     22% 0 mm 0.0 W/m2
23:23 14.2 °C -7.2 °C 1017.8 hPa Calm     22% 0 mm 0.0 W/m2
23:28 14 °C -7.4 °C 1017.8 hPa Calm     22% 0 mm 0.0 W/m2
23:34 13.8 °C -7 °C 1017.8 hPa Calm     23% 0 mm 0.0 W/m2
23:39 13.7 °C -7.1 °C 1017.8 hPa Calm     23% 0 mm 0.0 W/m2
23:50 13.6 °C -6.6 °C 1017.8 hPa Calm     24% 0 mm 0.0 W/m2
23:56 13.2 °C -6.4 °C 1017.8 hPa Calm     25% 0 mm 0.0 W/m2
Canyon Roadhouse, Fishriver Canyon, Namibia
Compliments of Weather Underground - 2.25 mb